Terminal Aerodrome Forecast
Issued by NWS

Home | Current Version | Previous Version | Text Only | Print | Product List | Glossary On
Versions: 1 2 3 4 5 6 7 8 9 10 11 12 13 14 15
306
FTUS44 KTSA 281956 AAA
TAFFYV
TAF AMD
KFYV 281956Z 2820/2918 00000KT P6SM SCT040 BKN060 BKN090
      TEMPO 2820/2822 5SM -TSRA BKN040CB
     FM290100 VRB03KT P6SM SCT250
      TEMPO 2909/2913 3SM BR
     FM291600 VRB03KT P6SM SCT040=

USA.gov is the U.S. government's official web portal to all federal, state and local government web resources and services.